createdAt,value
2018-09-30T00:00:01.792Z,3.00
2018-09-30T00:02:31.789Z,3.47
2018-09-30T00:05:03.438Z,3.47
2018-09-30T00:07:34.213Z,3.30
2018-09-30T00:10:07.671Z,3.43
2018-09-30T00:12:37.597Z,3.67
2018-09-30T00:15:13.432Z,3.50
2018-09-30T00:17:44.227Z,3.90
2018-09-30T00:20:16.878Z,3.27
2018-09-30T00:22:47.075Z,3.73
2018-09-30T00:25:23.030Z,3.60
2018-09-30T00:27:54.916Z,3.60
2018-09-30T00:30:24.906Z,3.77
2018-09-30T00:32:56.154Z,3.23
2018-09-30T00:35:26.081Z,3.30
2018-09-30T00:37:55.975Z,3.43
2018-09-30T00:40:27.332Z,3.00
2018-09-30T00:43:06.193Z,3.80
2018-09-30T00:45:40.605Z,3.80
2018-09-30T00:48:14.494Z,3.50
2018-09-30T00:50:46.771Z,3.67
2018-09-30T00:53:16.595Z,3.20
2018-09-30T00:55:46.742Z,3.63
2018-09-30T00:58:17.002Z,3.87
2018-09-30T01:00:47.189Z,3.70
2018-09-30T01:03:16.886Z,3.60
2018-09-30T01:05:51.567Z,3.77
2018-09-30T01:08:21.361Z,4.27
2018-09-30T01:10:51.191Z,3.37
2018-09-30T01:13:21.148Z,4.13
2018-09-30T01:15:51.598Z,4.07
2018-09-30T01:18:21.641Z,3.90
2018-09-30T01:20:51.757Z,3.73
2018-09-30T01:23:23.216Z,3.93
2018-09-30T01:25:53.350Z,3.57
2018-09-30T01:28:23.374Z,3.90
2018-09-30T01:30:55.189Z,3.97
2018-09-30T01:33:25.847Z,3.23
2018-09-30T01:35:57.621Z,4.03
2018-09-30T01:38:34.604Z,3.90
2018-09-30T01:41:06.245Z,3.93
2018-09-30T01:43:40.345Z,3.87
2018-09-30T01:46:12.177Z,3.97
2018-09-30T01:48:42.171Z,3.80
2018-09-30T01:51:12.285Z,3.90
2018-09-30T01:53:43.137Z,4.00
2018-09-30T01:56:14.235Z,3.93
2018-09-30T01:58:45.641Z,3.47
2018-09-30T02:01:16.665Z,3.77
2018-09-30T02:03:54.977Z,3.90
2018-09-30T02:15:36.054Z,4.00
2018-09-30T02:18:06.073Z,4.10
2018-09-30T02:20:35.765Z,4.03
2018-09-30T02:23:08.523Z,3.37
2018-09-30T02:25:38.721Z,4.00
2018-09-30T02:28:08.657Z,3.47
2018-09-30T02:30:38.329Z,3.63
2018-09-30T02:33:08.049Z,3.67
2018-09-30T02:35:37.708Z,3.70
2018-09-30T02:38:07.756Z,3.50
2018-09-30T02:40:37.416Z,3.97
2018-09-30T02:43:07.263Z,3.63
2018-09-30T02:45:36.969Z,3.70
2018-09-30T02:48:07.712Z,3.40
2018-09-30T02:50:37.465Z,4.10
2018-09-30T03:24:02.538Z,3.67
2018-09-30T03:26:32.432Z,3.50
2018-09-30T03:29:02.236Z,3.73
2018-09-30T03:31:47.771Z,4.20
2018-09-30T03:34:17.479Z,3.53
2018-09-30T03:36:48.222Z,3.50
2018-09-30T03:39:18.063Z,4.33
2018-09-30T03:41:47.833Z,3.70
2018-09-30T03:44:17.936Z,3.70
2018-09-30T03:46:47.694Z,3.60
2018-09-30T03:49:17.745Z,3.20
2018-09-30T03:51:47.733Z,3.50
2018-09-30T03:54:17.503Z,4.00
2018-09-30T03:59:38.447Z,3.47
2018-09-30T04:02:14.706Z,3.73
2018-09-30T04:04:46.145Z,4.10
2018-09-30T04:07:17.051Z,3.43
2018-09-30T04:09:48.589Z,4.03
2018-09-30T04:12:18.391Z,3.57
2018-09-30T04:14:49.512Z,3.33
2018-09-30T04:17:20.056Z,3.30
2018-09-30T04:19:50.170Z,3.60
2018-09-30T04:22:23.060Z,3.27
2018-09-30T04:24:53.714Z,3.60
2018-09-30T04:27:23.701Z,3.70
2018-09-30T04:29:56.457Z,3.63
2018-09-30T04:32:27.102Z,3.87
2018-09-30T04:34:58.531Z,3.67
2018-09-30T04:37:28.396Z,3.83
2018-09-30T04:39:59.268Z,3.50
2018-09-30T04:42:29.272Z,4.07
2018-09-30T04:45:01.453Z,3.57
2018-09-30T04:47:35.051Z,3.70
2018-09-30T04:50:05.256Z,3.80
2018-09-30T04:52:38.316Z,3.57
2018-09-30T04:55:12.817Z,3.83
2018-09-30T04:57:44.129Z,3.80
2018-09-30T05:00:15.333Z,3.60
2018-09-30T05:02:53.870Z,4.23
2018-09-30T05:05:24.495Z,3.60
2018-09-30T05:07:56.921Z,3.60
2018-09-30T05:10:26.889Z,4.37
2018-09-30T05:12:59.003Z,3.97
2018-09-30T05:15:29.286Z,3.87
2018-09-30T05:18:03.411Z,4.20
2018-09-30T05:20:34.265Z,3.93
2018-09-30T05:23:06.567Z,3.93
2018-09-30T05:25:38.144Z,4.67
2018-09-30T05:28:08.444Z,4.13
2018-09-30T05:30:38.379Z,3.97
2018-09-30T05:33:08.545Z,4.10
2018-09-30T05:35:38.946Z,3.77
2018-09-30T05:38:08.781Z,4.67
2018-09-30T05:40:39.030Z,4.40
2018-09-30T05:43:08.659Z,3.80
2018-09-30T05:45:38.432Z,4.23
2018-09-30T05:48:08.735Z,4.10
2018-09-30T05:50:38.840Z,4.00
2018-09-30T05:53:08.574Z,4.00
2018-09-30T05:55:38.409Z,4.10
2018-09-30T05:58:08.224Z,4.17
2018-09-30T06:00:38.522Z,4.57
2018-09-30T06:03:08.512Z,4.53
2018-09-30T06:05:38.654Z,4.83
2018-09-30T06:08:10.220Z,5.13
2018-09-30T06:13:41.918Z,4.27
2018-09-30T06:21:44.445Z,4.77
2018-09-30T06:24:20.578Z,4.73
2018-09-30T06:26:50.374Z,6.23
2018-09-30T06:29:25.301Z,4.90
2018-09-30T06:31:57.270Z,4.67
2018-09-30T06:34:28.691Z,4.57
2018-09-30T06:37:07.809Z,4.83
2018-09-30T06:39:38.269Z,4.80
2018-09-30T06:42:08.142Z,5.03
2018-09-30T06:44:38.252Z,5.10
2018-09-30T06:47:08.321Z,5.13
2018-09-30T06:49:39.496Z,4.93
2018-09-30T06:52:09.650Z,4.93
2018-09-30T06:54:39.488Z,4.87
2018-09-30T06:57:09.478Z,4.33
2018-09-30T06:59:39.239Z,4.63
2018-09-30T07:02:11.744Z,4.50
2018-09-30T07:04:41.646Z,6.57
2018-09-30T07:07:11.571Z,5.50
2018-09-30T07:09:41.389Z,5.53
2018-09-30T07:12:13.254Z,5.43
2018-09-30T07:14:43.913Z,4.67
2018-09-30T07:17:25.442Z,4.77
2018-09-30T07:19:56.477Z,3.73
2018-09-30T07:22:26.451Z,4.07
2018-09-30T07:24:57.653Z,3.80
2018-09-30T07:27:27.606Z,4.17
2018-09-30T07:29:57.755Z,3.83
2018-09-30T07:32:29.068Z,3.80
2018-09-30T07:35:01.637Z,3.73
2018-09-30T07:37:32.258Z,3.47
2018-09-30T07:40:02.383Z,3.27
2018-09-30T07:42:32.447Z,4.40
2018-09-30T07:48:38.480Z,3.87
2018-09-30T07:51:37.940Z,3.53
2018-09-30T07:54:09.144Z,3.90
2018-09-30T07:56:39.275Z,4.27
2018-09-30T07:59:10.700Z,3.67
2018-09-30T08:30:17.011Z,3.90
2018-09-30T08:32:48.256Z,3.63
2018-09-30T08:35:29.590Z,3.50
2018-09-30T08:38:07.049Z,3.60
2018-09-30T08:40:44.830Z,3.80
2018-09-30T08:43:16.846Z,3.97
2018-09-30T08:45:47.191Z,3.90
2018-09-30T08:48:21.414Z,3.87
2018-09-30T08:50:59.519Z,3.90
2018-09-30T08:53:51.076Z,3.93
2018-09-30T08:56:24.702Z,3.90
2018-09-30T08:58:57.582Z,4.20
2018-09-30T09:01:28.688Z,4.40
2018-09-30T09:03:59.444Z,4.33
2018-09-30T09:06:31.015Z,3.77
2018-09-30T09:09:01.196Z,3.93
2018-09-30T09:11:32.336Z,4.40
2018-09-30T09:14:02.677Z,4.00
2018-09-30T09:16:34.443Z,4.43
2018-09-30T09:19:05.775Z,3.70
2018-09-30T09:21:36.166Z,3.83
2018-09-30T09:24:07.126Z,3.70
2018-09-30T09:26:37.299Z,3.70
2018-09-30T09:29:07.981Z,4.13
2018-09-30T09:31:38.035Z,3.77
2018-09-30T09:36:49.739Z,3.67
2018-09-30T09:39:20.315Z,3.87
2018-09-30T09:47:23.492Z,3.87
2018-09-30T09:50:06.582Z,3.47
2018-09-30T09:52:38.366Z,3.77
2018-09-30T09:55:10.190Z,3.93
2018-09-30T09:57:41.124Z,4.27
2018-09-30T10:00:17.185Z,4.03
2018-09-30T10:02:49.405Z,4.30
2018-09-30T10:08:02.518Z,3.47
2018-09-30T10:10:42.975Z,3.77
2018-09-30T10:13:13.924Z,4.90
2018-09-30T10:15:45.547Z,3.57
2018-09-30T10:18:19.793Z,3.97
2018-09-30T10:20:51.991Z,4.60
2018-09-30T10:23:23.777Z,4.43
2018-09-30T10:25:54.259Z,4.07
2018-09-30T10:28:35.541Z,4.27
2018-09-30T10:31:06.697Z,3.57
2018-09-30T10:33:39.430Z,4.67
2018-09-30T10:36:13.794Z,4.40
2018-09-30T10:38:45.327Z,4.13
2018-09-30T10:41:19.068Z,4.53
2018-09-30T10:43:50.116Z,4.17
2018-09-30T10:46:24.004Z,4.23
2018-09-30T10:49:01.390Z,4.30
2018-09-30T10:51:32.625Z,4.30
2018-09-30T10:56:50.972Z,5.87
2018-09-30T11:02:06.821Z,4.03
2018-09-30T11:04:45.525Z,4.57
2018-09-30T11:07:20.719Z,4.07
2018-09-30T11:09:54.763Z,4.53
2018-09-30T11:12:29.283Z,4.50
2018-09-30T11:15:09.185Z,4.20
2018-09-30T11:17:43.530Z,4.23
2018-09-30T11:20:22.779Z,4.90
2018-09-30T11:22:55.457Z,4.60
2018-09-30T11:25:31.667Z,3.93
2018-09-30T11:28:02.422Z,5.07
2018-09-30T11:30:39.250Z,4.07
2018-09-30T11:33:13.886Z,4.40
2018-09-30T11:35:48.105Z,4.53
2018-09-30T11:38:26.004Z,4.73
2018-09-30T11:41:04.139Z,4.43
2018-09-30T11:43:36.593Z,4.67
2018-09-30T11:46:08.586Z,4.60
2018-09-30T11:48:41.144Z,4.50
2018-09-30T11:51:18.804Z,4.63
2018-09-30T11:53:49.361Z,4.20
2018-09-30T11:56:25.344Z,4.20
2018-09-30T11:58:56.935Z,4.50
2018-09-30T12:04:15.978Z,4.40
2018-09-30T12:06:47.709Z,4.93
2018-09-30T12:09:23.626Z,4.43
2018-09-30T12:11:56.740Z,4.60
2018-09-30T12:14:28.020Z,4.83
2018-09-30T12:17:02.595Z,4.63
2018-09-30T12:19:37.619Z,4.27
2018-09-30T12:22:11.435Z,3.83
2018-09-30T12:24:44.085Z,4.37
2018-09-30T12:27:19.501Z,5.17
2018-09-30T12:29:54.034Z,4.33
2018-09-30T12:32:27.503Z,4.83
2018-09-30T12:35:10.471Z,4.63
2018-09-30T12:37:51.518Z,4.47
2018-09-30T12:40:34.020Z,3.97
2018-09-30T12:43:17.128Z,4.67
2018-09-30T12:45:57.021Z,4.47
2018-09-30T12:48:36.319Z,3.93
2018-09-30T12:51:19.278Z,4.67
2018-09-30T12:54:21.105Z,4.03
2018-09-30T12:56:56.886Z,3.70
2018-09-30T12:59:30.572Z,3.90
2018-09-30T13:02:05.586Z,3.87
2018-09-30T13:04:39.721Z,3.90
2018-09-30T13:07:12.173Z,4.00
2018-09-30T13:09:46.100Z,3.87
2018-09-30T13:12:17.978Z,4.57
2018-09-30T13:14:49.747Z,4.47
2018-09-30T13:17:22.662Z,4.03
2018-09-30T13:20:02.584Z,3.67
2018-09-30T13:22:53.653Z,3.67
2018-09-30T13:25:35.937Z,4.30
2018-09-30T13:28:15.094Z,3.67
2018-09-30T13:30:52.234Z,3.67
2018-09-30T13:33:26.367Z,4.33
2018-09-30T13:36:14.038Z,3.97
2018-09-30T13:38:48.586Z,3.90
2018-09-30T13:41:20.060Z,3.60
2018-09-30T13:44:01.944Z,3.63
2018-09-30T13:46:37.569Z,3.80
2018-09-30T13:49:15.173Z,3.97
2018-09-30T13:51:50.931Z,3.77
2018-09-30T13:54:30.192Z,4.00
2018-09-30T13:57:10.897Z,3.37
2018-09-30T13:59:44.958Z,3.87
2018-09-30T14:02:24.079Z,4.00
2018-09-30T14:05:02.120Z,4.33
2018-09-30T14:07:49.734Z,3.87
2018-09-30T14:10:27.371Z,3.87
2018-09-30T14:13:01.967Z,4.90
2018-09-30T14:19:22.563Z,4.80
2018-09-30T14:22:07.133Z,3.33
2018-09-30T14:25:01.053Z,3.70
2018-09-30T14:30:26.500Z,3.50
2018-09-30T14:33:06.574Z,3.60
2018-09-30T14:35:51.701Z,3.97
2018-09-30T14:38:37.274Z,3.67
2018-09-30T14:41:17.121Z,3.93
2018-09-30T14:43:57.168Z,3.17
2018-09-30T14:46:38.582Z,3.40
2018-09-30T14:49:16.359Z,3.50
2018-09-30T14:51:58.075Z,3.73
2018-09-30T14:54:40.034Z,3.70
2018-09-30T15:00:22.720Z,3.37
2018-09-30T15:03:16.617Z,3.73
2018-09-30T15:08:44.464Z,3.57
2018-09-30T15:14:10.403Z,3.60
2018-09-30T15:16:47.928Z,3.47
2018-09-30T15:19:37.809Z,3.30
2018-09-30T15:22:22.498Z,3.63
2018-09-30T15:25:17.380Z,3.67
2018-09-30T15:27:53.789Z,3.70
2018-09-30T15:30:39.782Z,4.40
2018-09-30T15:33:31.320Z,4.10
2018-09-30T15:36:32.765Z,4.03
2018-09-30T15:39:14.392Z,3.93
2018-09-30T15:42:03.853Z,3.50
2018-09-30T15:44:43.732Z,5.60
2018-09-30T15:47:19.489Z,5.00
2018-09-30T15:49:59.669Z,4.80
2018-09-30T15:52:42.788Z,4.10
2018-09-30T15:55:25.730Z,4.43
2018-09-30T15:58:02.099Z,4.00
2018-09-30T16:03:19.010Z,4.60
2018-09-30T16:05:58.910Z,4.67
2018-09-30T16:08:34.959Z,4.60
2018-09-30T16:11:24.038Z,5.27
2018-09-30T16:14:01.389Z,4.43
2018-09-30T16:16:48.931Z,4.07
2018-09-30T16:19:30.089Z,4.63
2018-09-30T16:22:08.384Z,4.10
2018-09-30T16:24:44.413Z,4.47
2018-09-30T16:27:36.969Z,4.70
2018-09-30T16:30:21.012Z,4.70
2018-09-30T16:36:30.107Z,4.93
2018-09-30T16:42:21.760Z,4.73
2018-09-30T16:45:09.331Z,4.17
2018-09-30T16:47:55.170Z,4.17
2018-09-30T16:50:32.970Z,3.40
2018-09-30T16:53:08.772Z,3.67
2018-09-30T16:55:46.420Z,3.67
2018-09-30T17:01:38.233Z,3.70
2018-09-30T17:04:29.608Z,4.10
2018-09-30T17:07:10.417Z,3.67
2018-09-30T17:10:03.466Z,3.40
2018-09-30T17:12:40.446Z,3.80
2018-09-30T17:15:17.243Z,3.23
2018-09-30T17:18:16.946Z,3.70
2018-09-30T17:20:58.228Z,3.57
2018-09-30T17:23:34.675Z,4.20
2018-09-30T17:26:17.700Z,7.87
2018-09-30T17:31:54.366Z,4.77
2018-09-30T17:34:44.017Z,3.77
2018-09-30T17:37:16.847Z,3.50
2018-09-30T17:42:42.071Z,3.47
2018-09-30T17:45:40.176Z,3.63
2018-09-30T17:51:39.793Z,3.60
2018-09-30T17:54:47.008Z,4.00
2018-09-30T17:57:47.806Z,3.73
2018-09-30T18:07:23.486Z,4.07
2018-09-30T18:10:13.014Z,4.23
2018-09-30T18:16:48.343Z,4.77
2018-09-30T18:23:15.502Z,3.80
2018-09-30T18:30:23.764Z,4.10
2018-09-30T19:41:19.967Z,4.93
2018-09-30T19:50:30.806Z,5.43
2018-09-30T19:53:15.385Z,5.13
2018-09-30T19:59:13.416Z,5.57
2018-09-30T20:02:12.607Z,5.40
2018-09-30T20:04:52.967Z,5.07
2018-09-30T20:07:59.234Z,5.33
2018-09-30T20:14:00.657Z,5.67
2018-09-30T20:17:00.635Z,5.40
2018-09-30T20:20:05.092Z,5.30
2018-09-30T20:23:11.906Z,5.53
2018-09-30T20:26:12.575Z,4.87
2018-09-30T20:29:11.042Z,6.03
2018-09-30T20:31:52.974Z,5.50
2018-09-30T20:34:27.480Z,5.60
2018-09-30T20:37:06.929Z,5.83
2018-09-30T20:39:45.372Z,6.40
2018-09-30T20:42:19.530Z,6.10
2018-09-30T20:44:51.255Z,6.27
2018-09-30T20:50:20.299Z,5.60
2018-09-30T20:52:55.483Z,5.67
2018-09-30T20:58:12.723Z,5.70
2018-09-30T21:00:45.675Z,6.60
2018-09-30T21:03:24.511Z,6.57
2018-09-30T21:06:35.884Z,6.10
2018-09-30T21:09:17.665Z,6.73
2018-09-30T21:11:52.728Z,6.73
2018-09-30T21:14:23.738Z,6.30
2018-09-30T21:16:57.151Z,6.50
2018-09-30T21:19:29.459Z,6.43
2018-09-30T21:22:05.213Z,6.80
2018-09-30T21:24:39.233Z,6.70
2018-09-30T21:27:10.774Z,6.50
2018-09-30T21:29:42.858Z,6.43
2018-09-30T21:32:13.897Z,6.40
2018-09-30T21:34:46.859Z,6.33
2018-09-30T21:37:19.131Z,6.27
2018-09-30T21:39:49.737Z,6.10
2018-09-30T21:42:22.169Z,6.63
2018-09-30T21:44:53.659Z,6.83
2018-09-30T21:47:23.772Z,6.80
2018-09-30T21:49:59.183Z,7.20
2018-09-30T21:52:31.402Z,8.00
2018-09-30T21:55:01.998Z,7.20
2018-09-30T21:57:33.190Z,6.53
2018-09-30T22:00:03.427Z,7.13
2018-09-30T22:02:33.383Z,6.93
2018-09-30T22:05:05.508Z,7.10
2018-09-30T22:07:36.646Z,6.90
2018-09-30T22:10:16.181Z,7.03
2018-09-30T22:12:47.199Z,7.20
2018-09-30T22:15:18.602Z,7.40
2018-09-30T22:17:51.406Z,6.93
2018-09-30T22:20:21.230Z,7.33
2018-09-30T22:22:51.144Z,6.67
2018-09-30T22:25:21.415Z,7.70
2018-09-30T22:27:51.333Z,7.20
2018-09-30T22:30:21.060Z,6.80
2018-09-30T22:32:52.310Z,7.77
2018-09-30T22:35:22.312Z,8.90
2018-09-30T22:37:52.637Z,7.13
2018-09-30T22:40:22.582Z,7.80
2018-09-30T22:42:52.906Z,6.87
2018-09-30T22:45:23.106Z,6.23
2018-09-30T22:47:53.059Z,6.20
2018-09-30T22:50:23.006Z,6.80
2018-09-30T22:52:53.112Z,6.87
2018-09-30T22:55:23.011Z,6.47
2018-09-30T22:57:53.136Z,7.03
2018-09-30T23:00:22.975Z,7.00
2018-09-30T23:02:52.885Z,6.70
2018-09-30T23:05:22.704Z,7.00
2018-09-30T23:07:52.755Z,6.13
2018-09-30T23:10:22.604Z,6.40
2018-09-30T23:12:56.447Z,7.50
2018-09-30T23:15:26.428Z,7.17
2018-09-30T23:17:56.492Z,7.53
2018-09-30T23:20:26.851Z,6.57
2018-09-30T23:22:56.581Z,7.20
2018-09-30T23:25:26.685Z,6.90
2018-09-30T23:27:56.822Z,7.00
2018-09-30T23:30:26.664Z,6.80
2018-09-30T23:32:56.516Z,6.80
2018-09-30T23:35:26.359Z,7.53
2018-09-30T23:37:57.678Z,7.40
2018-09-30T23:40:27.402Z,6.97
2018-09-30T23:42:57.359Z,7.00
2018-09-30T23:45:27.055Z,6.70
2018-09-30T23:47:58.495Z,6.70
2018-09-30T23:50:28.275Z,6.47
2018-09-30T23:52:58.187Z,6.73
2018-09-30T23:55:28.132Z,7.07
2018-09-30T23:58:15.087Z,6.13
